createdAt,value
2019-02-06T00:00:43.738Z,100.00
2019-02-06T00:05:39.881Z,100.00
2019-02-06T00:10:35.920Z,100.00
2019-02-06T00:15:32.244Z,100.00
2019-02-06T00:20:28.339Z,100.00
2019-02-06T00:25:24.189Z,100.00
2019-02-06T00:30:24.912Z,100.00
2019-02-06T00:35:25.927Z,100.00
2019-02-06T00:40:18.471Z,100.00
2019-02-06T00:45:14.845Z,100.00
2019-02-06T00:50:13.849Z,100.00
2019-02-06T00:55:09.923Z,100.00
2019-02-06T01:00:15.365Z,100.00
2019-02-06T01:05:13.686Z,100.00
2019-02-06T01:10:11.442Z,100.00
2019-02-06T01:15:09.042Z,100.00
2019-02-06T01:20:05.482Z,100.00
2019-02-06T01:25:01.766Z,100.00
2019-02-06T01:29:57.710Z,100.00
2019-02-06T01:34:53.588Z,100.00
2019-02-06T01:39:49.572Z,100.00
2019-02-06T01:44:46.575Z,100.00
2019-02-06T01:49:44.709Z,100.00
2019-02-06T01:54:40.516Z,100.00
2019-02-06T01:59:39.985Z,100.00
2019-02-06T02:04:35.922Z,100.00
2019-02-06T02:09:31.982Z,100.00
2019-02-06T02:14:28.877Z,100.00
2019-02-06T02:19:24.818Z,100.00
2019-02-06T02:24:22.706Z,100.00
2019-02-06T02:29:20.544Z,100.00
2019-02-06T02:34:17.980Z,100.00
2019-02-06T02:39:13.970Z,100.00
2019-02-06T02:44:31.487Z,100.00
2019-02-06T02:49:34.459Z,100.00
2019-02-06T02:54:34.715Z,100.00
2019-02-06T02:59:34.351Z,100.00
2019-02-06T03:04:39.263Z,100.00
2019-02-06T03:09:41.163Z,100.00
2019-02-06T03:14:46.912Z,100.00
2019-02-06T03:19:42.874Z,100.00
2019-02-06T03:24:38.893Z,100.00
2019-02-06T03:29:39.113Z,100.00
2019-02-06T03:34:39.129Z,100.00
2019-02-06T03:39:35.087Z,100.00
2019-02-06T03:44:32.331Z,100.00
2019-02-06T03:49:28.406Z,100.00
2019-02-06T03:54:25.334Z,100.00
2019-02-06T03:59:34.112Z,100.00
2019-02-06T04:04:36.097Z,100.00
2019-02-06T04:10:02.764Z,100.00
2019-02-06T04:14:58.960Z,100.00
2019-02-06T04:19:54.869Z,100.00
2019-02-06T04:24:52.255Z,100.00
2019-02-06T04:29:53.242Z,100.00
2019-02-06T04:34:49.091Z,100.00
2019-02-06T04:39:46.024Z,100.00
2019-02-06T04:44:44.720Z,100.00
2019-02-06T04:49:50.085Z,100.00
2019-02-06T04:54:51.701Z,100.00
2019-02-06T05:00:04.602Z,100.00
2019-02-06T05:05:02.586Z,100.00
2019-02-06T05:09:58.389Z,100.00
2019-02-06T05:14:54.382Z,100.00
2019-02-06T05:19:50.622Z,100.00
2019-02-06T05:24:48.361Z,100.00
2019-02-06T05:29:44.316Z,100.00
2019-02-06T05:34:40.261Z,100.00
2019-02-06T05:39:36.124Z,100.00
2019-02-06T05:44:31.972Z,100.00
2019-02-06T05:49:28.257Z,100.00
2019-02-06T05:54:27.714Z,100.00
2019-02-06T05:59:23.964Z,100.00
2019-02-06T06:04:22.752Z,100.00
2019-02-06T06:09:18.790Z,100.00
2019-02-06T06:14:14.696Z,100.00
2019-02-06T06:19:10.666Z,100.00
2019-02-06T06:24:09.039Z,100.00
2019-02-06T06:29:04.555Z,100.00
2019-02-06T06:34:00.426Z,100.00
2019-02-06T06:38:56.664Z,100.00
2019-02-06T06:43:52.653Z,100.00
2019-02-06T06:48:48.749Z,100.00
2019-02-06T06:53:44.768Z,100.00
2019-02-06T06:58:45.112Z,100.00
2019-02-06T07:03:45.565Z,100.00
2019-02-06T07:08:43.941Z,100.00
2019-02-06T07:13:38.575Z,100.00
2019-02-06T07:18:34.770Z,100.00
2019-02-06T07:23:30.583Z,100.00
2019-02-06T07:28:26.556Z,100.00
2019-02-06T07:33:22.730Z,100.00
2019-02-06T07:38:35.067Z,100.00
2019-02-06T07:43:48.947Z,100.00
2019-02-06T07:48:44.871Z,100.00
2019-02-06T07:53:46.945Z,100.00
2019-02-06T07:58:42.920Z,100.00
2019-02-06T08:03:38.977Z,100.00
2019-02-06T08:08:39.598Z,100.00
2019-02-06T08:13:35.505Z,100.00
2019-02-06T08:18:38.452Z,100.00
2019-02-06T08:23:34.485Z,100.00
2019-02-06T08:28:30.450Z,100.00
2019-02-06T08:33:26.655Z,100.00
2019-02-06T08:38:22.643Z,100.00
2019-02-06T08:43:18.569Z,100.00
2019-02-06T08:48:14.589Z,100.00
2019-02-06T08:53:10.558Z,99.15
2019-02-06T08:58:06.783Z,100.00
2019-02-06T09:03:07.898Z,100.00
2019-02-06T09:08:04.095Z,98.53
2019-02-06T09:13:01.953Z,100.00
2019-02-06T09:17:58.106Z,100.00
2019-02-06T09:22:54.886Z,96.56
2019-02-06T09:27:50.991Z,97.47
2019-02-06T09:32:46.844Z,97.88
2019-02-06T09:37:42.992Z,97.90
2019-02-06T09:42:38.901Z,99.99
2019-02-06T09:47:34.847Z,97.22
2019-02-06T09:52:33.305Z,96.93
2019-02-06T09:57:29.374Z,95.05
2019-02-06T10:02:25.259Z,94.76
2019-02-06T10:07:21.074Z,96.89
2019-02-06T10:12:16.971Z,98.07
2019-02-06T10:17:12.886Z,96.25
2019-02-06T10:22:08.861Z,98.83
2019-02-06T10:27:04.979Z,99.04
2019-02-06T10:32:01.353Z,97.39
2019-02-06T10:36:57.314Z,93.81
2019-02-06T10:41:53.531Z,94.70
2019-02-06T10:46:49.522Z,96.49
2019-02-06T10:51:45.366Z,95.84
2019-02-06T10:56:44.623Z,95.33
2019-02-06T11:01:40.635Z,94.95
2019-02-06T11:06:36.587Z,94.97
2019-02-06T11:11:32.476Z,95.88
2019-02-06T11:16:29.120Z,96.97
2019-02-06T11:21:25.119Z,94.52
2019-02-06T11:26:21.152Z,94.49
2019-02-06T11:31:18.346Z,94.33
2019-02-06T11:36:23.912Z,95.12
2019-02-06T11:41:12.710Z,96.77
2019-02-06T11:46:09.248Z,94.43
2019-02-06T11:51:05.431Z,94.94
2019-02-06T11:56:01.514Z,92.33
2019-02-06T12:01:25.862Z,91.16
2019-02-06T12:06:22.044Z,92.60
2019-02-06T12:11:18.116Z,93.09
2019-02-06T12:16:14.078Z,94.06
2019-02-06T12:21:10.083Z,91.90
2019-02-06T12:26:06.548Z,92.38
2019-02-06T12:31:03.090Z,90.61
2019-02-06T12:35:59.150Z,91.13
2019-02-06T12:40:55.400Z,92.97
2019-02-06T12:45:51.282Z,93.11
2019-02-06T12:50:48.996Z,93.81
2019-02-06T12:55:44.994Z,93.50
2019-02-06T13:00:42.964Z,92.15
2019-02-06T13:05:53.204Z,92.30
2019-02-06T13:10:49.368Z,91.95
2019-02-06T13:15:47.309Z,90.63
2019-02-06T13:20:51.383Z,91.46
2019-02-06T13:25:47.052Z,92.62
2019-02-06T13:30:43.777Z,93.67
2019-02-06T13:35:40.321Z,94.23
2019-02-06T13:40:45.068Z,91.45
2019-02-06T13:45:44.294Z,90.13
2019-02-06T13:50:40.526Z,91.87
2019-02-06T13:55:36.542Z,93.86
2019-02-06T14:00:35.317Z,92.03
2019-02-06T14:05:34.743Z,91.73
2019-02-06T14:10:31.581Z,91.73
2019-02-06T14:15:36.593Z,90.29
2019-02-06T14:20:35.226Z,91.34
2019-02-06T14:25:40.203Z,92.82
2019-02-06T14:31:35.401Z,94.04
2019-02-06T14:37:18.831Z,93.12
2019-02-06T14:43:03.018Z,95.12
2019-02-06T14:48:30.490Z,93.95
2019-02-06T14:54:26.313Z,95.20
2019-02-06T15:00:17.621Z,93.83
2019-02-06T15:05:47.783Z,93.17
2019-02-06T15:11:20.026Z,92.53
2019-02-06T15:17:22.227Z,93.36
2019-02-06T15:23:36.326Z,95.05
2019-02-06T15:29:06.940Z,94.33
2019-02-06T15:34:58.901Z,94.70
2019-02-06T15:40:49.054Z,96.74
2019-02-06T15:46:48.314Z,96.68
2019-02-06T15:52:47.356Z,95.76
2019-02-06T15:58:35.894Z,96.32
2019-02-06T16:04:37.293Z,93.88
2019-02-06T16:10:38.203Z,94.50
2019-02-06T16:16:59.478Z,95.47
2019-02-06T16:22:46.222Z,97.13
2019-02-06T16:28:27.455Z,98.53
2019-02-06T16:34:53.601Z,97.89
2019-02-06T16:41:13.135Z,98.57
2019-02-06T16:47:03.798Z,96.91
2019-02-06T16:53:16.476Z,97.42
2019-02-06T16:59:18.729Z,96.92
2019-02-06T17:04:28.709Z,97.12
2019-02-06T17:10:13.940Z,98.18
2019-02-06T17:16:07.309Z,98.26
2019-02-06T17:21:35.930Z,97.79
2019-02-06T17:27:31.728Z,95.63
2019-02-06T17:33:30.075Z,98.24
2019-02-06T17:39:12.128Z,97.76
2019-02-06T17:45:10.292Z,97.96
2019-02-06T17:50:48.915Z,97.39
2019-02-06T17:55:57.163Z,98.38
2019-02-06T18:01:08.406Z,98.82
2019-02-06T18:06:37.248Z,98.22
2019-02-06T18:11:38.631Z,96.45
2019-02-06T18:16:40.141Z,99.33
2019-02-06T18:21:38.166Z,98.78
2019-02-06T18:26:43.251Z,96.33
2019-02-06T18:31:46.839Z,98.97
2019-02-06T18:36:45.377Z,97.39
2019-02-06T18:41:48.816Z,98.00
2019-02-06T18:46:57.895Z,97.75
2019-02-06T18:51:58.291Z,98.87
2019-02-06T18:56:54.849Z,99.42
2019-02-06T19:01:55.302Z,96.86
2019-02-06T19:06:57.972Z,97.79
2019-02-06T19:11:54.497Z,96.78
2019-02-06T19:16:52.659Z,97.20
2019-02-06T19:21:48.974Z,98.97
2019-02-06T19:26:47.701Z,99.53
2019-02-06T19:31:48.022Z,98.14
2019-02-06T19:36:49.812Z,98.74
2019-02-06T19:41:46.161Z,97.97
2019-02-06T19:46:45.668Z,97.93
2019-02-06T19:51:41.934Z,97.21
2019-02-06T19:56:38.118Z,97.94
2019-02-06T20:01:35.414Z,98.21
2019-02-06T20:06:33.849Z,98.91
2019-02-06T20:11:30.771Z,97.63
2019-02-06T20:16:27.024Z,97.58
2019-02-06T20:21:24.040Z,97.73
2019-02-06T20:26:20.467Z,98.47
2019-02-06T20:31:16.446Z,97.62
2019-02-06T20:36:22.391Z,96.85
2019-02-06T20:41:20.603Z,96.45
2019-02-06T20:46:17.623Z,96.31
2019-02-06T20:51:16.048Z,97.36
2019-02-06T20:56:14.829Z,97.07
2019-02-06T21:01:13.069Z,99.43
2019-02-06T21:06:11.709Z,96.27
2019-02-06T21:11:30.584Z,96.36
2019-02-06T21:16:28.280Z,97.69
2019-02-06T21:21:31.558Z,99.03
2019-02-06T21:26:30.417Z,98.32
2019-02-06T21:31:27.413Z,96.28
2019-02-06T21:36:26.366Z,96.76
2019-02-06T21:41:23.778Z,99.15
2019-02-06T21:46:28.379Z,98.70
2019-02-06T21:51:25.491Z,98.70
2019-02-06T21:56:34.847Z,98.45
2019-02-06T22:01:39.180Z,98.80
2019-02-06T22:06:40.810Z,98.96
2019-02-06T22:11:38.112Z,99.53
2019-02-06T22:16:53.575Z,97.01
2019-02-06T22:21:51.890Z,96.78
2019-02-06T22:26:55.007Z,95.95
2019-02-06T22:32:22.808Z,94.92
2019-02-06T22:37:32.661Z,95.86
2019-02-06T22:43:03.968Z,97.73
2019-02-06T22:48:07.762Z,96.62
2019-02-06T22:53:08.816Z,96.62
2019-02-06T22:58:22.853Z,96.63
2019-02-06T23:03:35.532Z,94.65
2019-02-06T23:08:46.442Z,95.30
2019-02-06T23:14:16.756Z,96.12
2019-02-06T23:19:15.248Z,96.78
2019-02-06T23:24:20.495Z,98.43
2019-02-06T23:29:40.903Z,97.76
2019-02-06T23:34:41.623Z,97.77
2019-02-06T23:39:38.780Z,95.77
2019-02-06T23:44:39.830Z,96.40
2019-02-06T23:49:49.704Z,96.25
2019-02-06T23:54:49.180Z,95.78
2019-02-06T23:59:57.707Z,95.17
